Mason Valley Wildlife Refuge, Nevada Weather observations

Data are for 10 minute period ending at time listed.
 Day   Time   Solar   Ave.   Ave.  Ave.  Vector  Max.   Baro.   Total    
  of    of     Rad.   Air    Rel.  Wind   Wind   Wind  Press.  Precip.   
Year   Day            Temp.  Hum.  Speed  Dir.   Gust                    
2017   (PST)  Kw/m2    F      %     mph   deg.    mph    mb.     in.     
-------------------------------------------------------------------------
  35   20:50   0.00   42.2    48    1.6   350     3.7   867.2    0.00 
  35   21:00   0.00   40.5    52    3.4    72     6.4   867.2    0.00 
  35   21:10   0.00   41.5    49    0.8    65     2.4   867.1    0.00 
  35   21:20   0.00   40.4    50    1.7   136     5.5   867.1    0.00 
  35   21:30   0.00   38.3    54    1.7    99     5.4   867.1    0.00 
  35   21:40   0.00   38.9    55    4.9   105     6.4   867.0    0.00 
  35   21:50   0.00   38.3    56    4.0   144     4.8   867.0    0.00 
  35   22:00   0.00   37.0    59    3.2   194     4.4   867.1    0.00 
  35   22:10   0.00   38.4    57    1.3   243     3.0   867.3    0.00 
  35   22:20   0.00   36.4    58    1.1   249     2.3   867.5    0.00 
  35   22:30   0.00   33.0    66    2.2    18     4.7   867.5    0.00 
  35   22:40   0.00   33.4    67    2.8    11     3.8   867.5    0.00 
  35   22:50   0.00   34.1    67    1.3    57     3.1   867.5    0.00 
  35   23:00   0.00   32.8    68    0.3   274     2.1   867.4    0.00 
  35   23:10   0.00   31.8    71    1.4   228     3.4   867.5    0.00 
  35   23:20   0.00   31.3    70    2.5   222     3.6   867.4    0.00 
  35   23:30   0.00   30.3    74    3.1   179     4.5   867.3    0.00 
  35   23:40   0.00   29.9    74    2.7   149     4.0   867.3    0.00 
  35   23:50   0.00   28.5    77    3.1   163     5.6   867.3    0.00 
  36    0:00   0.00   28.0    78    4.7   190     7.4   867.2    0.00 
  36    0:10   0.00   29.3    78    1.4   121     3.9   867.1    0.00 
  36    0:20   0.00   29.1    75    1.3   352     4.9   867.1    0.00 
  36    0:30   0.00   28.5    79    2.5   282     8.0   867.2    0.00 
  36    0:40   0.00   30.3    77    2.7    30     5.0   867.1    0.00 
  36    0:50   0.00   31.0    75    1.8    88     3.8   867.1    0.00 
  36    1:00   0.00   28.5    76    1.7   169     2.6   867.0    0.00 
  36    1:10   0.00   26.1    82    2.8   186     4.2   867.0    0.00 
  36    1:20   0.00   27.9    79    3.2   238     4.6   867.0    0.00 
  36    1:30   0.00   27.7    80    2.5   255     4.2   867.0    0.00 
  36    1:40   0.00   26.7    80    2.9   166     5.1   867.0    0.00 
  36    1:50   0.00   28.5    80    2.3    16     3.7   867.1    0.00 
  36    2:00   0.00   27.8    79    0.3    29     2.3   867.1    0.00 
  36    2:10   0.00   27.0    81    1.4   263     4.2   867.1    0.00 
  36    2:20   0.00   24.4    86    3.0   232     4.7   867.0    0.00 
  36    2:30   0.00   24.4    86    0.1   228     1.6   867.0    0.00 
  36    2:40   0.00   24.1    87    0.5   226     2.2   867.0    0.00 
  36    2:50   0.00   24.8    86    2.1   247     3.3   866.9    0.00 
  36    3:00   0.00   25.4    87    1.9   278     2.8   866.9    0.00 
  36    3:10   0.00   24.9    84    1.5   210     3.7   866.9    0.00 
  36    3:20   0.00   23.5    88    1.1   159     3.1   866.8    0.00 
  36    3:30   0.00   23.5    88    1.1   156     1.8   866.5    0.00 
  36    3:40   0.00   24.5    88    2.1   159     2.9   866.3    0.00 
  36    3:50   0.00   24.4    87    2.0   179     3.7   866.3    0.00 
  36    4:00   0.00   25.6    86    2.3   197     3.0   866.3    0.00 
  36    4:10   0.00   26.1    85    2.3   187     3.6   866.3    0.00 
  36    4:20   0.00   26.7    85    3.1   198     4.4   866.3    0.00 
  36    4:30   0.00   25.5    83    1.9   195     3.8   866.2    0.00 
  36    4:40   0.00   24.6    85    1.3    85     2.9   866.0    0.00 
  36    4:50   0.00   23.0    88    2.0    97     4.2   865.9    0.00 
  36    5:00   0.00   23.8    90    3.8   148     5.7   866.0    0.00 
  36    5:10   0.00   23.7    90    1.5    96     3.5   866.0    0.00 
  36    5:20   0.00   24.1    90    2.4   111     3.8   866.0    0.00 
  36    5:30   0.00   24.7    88    3.5   132     4.7   865.9    0.00 
  36    5:40   0.00   23.6    88    0.7   172     2.3   866.0    0.00 
  36    5:50   0.00   23.3    90    2.9   117     4.1   865.8    0.00 
  36    6:00   0.00   23.3    90    1.1   160     3.7   865.8    0.00 
  36    6:10   0.00   22.8    90    1.4    55     2.3   865.9    0.00 
  36    6:20   0.00   23.7    91    1.5   110     3.7   865.8    0.00 
  36    6:30   0.00   23.3    89    1.6    73     3.9   865.8    0.00 
  36    6:40   0.00   23.1    90    0.4   345     3.0   865.8    0.00 
  36    6:50   0.00   23.6    91    0.9    13     3.3   865.9    0.00 
  36    7:00   0.00   24.1    89    3.7   200     4.5   865.9    0.00 
  36    7:10   0.01   23.0    88    2.0   246     4.6   865.9    0.00 
  36    7:20   0.01   22.8    89    1.7   324     4.0   866.0    0.00 
  36    7:30   0.02   22.8    90    3.0    51     4.5   865.9    0.00 
  36    7:40   0.02   23.1    90    0.8    98     2.8   866.0    0.00 
  36    7:50   0.03   23.3    91    2.0   138     3.9   866.0    0.00 
  36    8:00   0.04   24.1    91    0.7   185     2.1   866.0    0.00 
  36    8:10   0.09   26.0    90    0.4   202     2.0   865.8    0.00 
  36    8:20   0.07   27.9    85    1.5   227     3.0   865.8    0.00 
  36    8:30   0.06   28.8    84    0.5   226     1.8   865.6    0.00 
  36    8:40   0.06   29.2    84    0.4   249     1.4   865.4    0.00 
  36    8:50   0.05   29.6    84    0.0     0     0.0   865.4    0.00 
  36    9:00   0.06   29.6    83    0.2   249     1.5   865.3    0.00 
  36    9:10   0.06   30.3    84    0.1   249     1.1   865.3    0.00 
  36    9:20   0.19   32.2    84    0.3   250     1.7   865.3    0.00 
  36    9:30   0.29   35.8    74    2.1   244     3.4   865.2    0.00 
  36    9:40   0.33   38.2    70    1.0   276     2.6   865.1    0.00 
  36    9:50   0.39   40.9    66    0.8    18     2.6   865.0    0.00 
  36   10:00   0.42   41.5    67    2.3    35     5.5   865.0    0.00 
  36   10:10   0.38   42.7    65    3.3    93     6.1   865.1    0.00 
  36   10:20   0.32   42.7    65    3.6    91     5.7   865.1    0.00 
  36   10:30   0.36   43.1    64    3.1    98     6.1   865.1    0.00 
  36   10:40   0.48   45.1    59    3.0    92     6.4   865.1    0.00 
  36   10:50   0.39   45.8    56    1.9    64     4.9   865.1    0.00 
  36   11:00   0.37   46.1    55    2.1    40     5.6   865.1    0.00 
  36   11:10   0.27   45.9    50    3.2    67     6.1   865.1    0.00 
  36   11:20   0.34   46.4    48    3.3    73     5.6   864.9    0.00 
  36   11:30   0.22   46.3    51    3.8    64     5.9   864.5    0.00 
  36   11:40   0.25   46.9    49    4.7    90     8.8   864.0    0.00 
  36   11:50   0.30   47.6    51    4.0    92     6.3   863.9    0.00 
  36   12:00   0.26   48.2    50    2.3    51     4.0   863.5    0.00 
  36   12:10   0.25   48.9    45    1.9   149     6.1   863.3    0.00 
  36   12:20   0.25   49.4    44    1.4   316     3.2   862.9    0.00 
  36   12:30   0.30   50.1    43    2.0    74     6.2   862.5    0.00 
  36   12:40   0.46   51.2    40    3.5    89     6.2   862.2    0.00 
  36   12:50   0.46   52.8    38    2.7   123     5.9   862.0    0.00 
  36   13:00   0.37   54.3    34    4.7   186    12.1   861.7    0.00 
  36   13:10   0.45   57.1    29   10.8   188    17.0   861.3    0.00 
  36   13:20   0.63   59.2    27   11.8   206    16.7   860.9    0.00 
  36   13:30   0.56   59.4    26   12.6   220    20.0   860.5    0.00 
  36   13:40   0.53   60.1    26   11.2   216    17.0   860.2    0.00 
  36   13:50   0.47   60.3    25   14.3   220    19.5   860.0    0.00 
  36   14:00   0.25   59.7    24   13.0   211    18.2   859.9    0.00 
  36   14:10   0.23   59.7    22   13.9   179    21.8   859.7    0.00 
  36   14:20   0.19   59.2    24   16.9   207    24.2   859.6    0.00 
  36   14:30   0.15   58.0    26   17.0   215    23.2   859.5    0.00 
  36   14:40   0.13   57.6    26   17.9   208    24.8   859.3    0.00 
  36   14:50   0.12   57.3    27   20.4   204    27.9   859.2    0.00 
  36   15:00   0.12   57.0    27   15.6   212    23.1   859.1    0.00 
  36   15:10   0.13   57.0    28   13.1   222    19.1   859.0    0.00 
  36   15:20   0.10   57.7    26   16.2   210    25.0   858.7    0.00 
  36   15:30   0.14   57.8    26   13.7   210    18.9   858.4    0.00 
  36   15:40   0.13   57.7    27   10.2   213    15.4   858.1    0.00 
  36   15:50   0.29   58.3    26   13.8   216    18.3   858.0    0.00 
  36   16:00   0.21   59.1    25   14.6   213    23.7   857.9    0.00 
  36   16:10   0.23   58.4    25   17.0   206    24.0   857.7    0.00 
  36   16:20   0.25   58.5    25   19.0   216    26.4   857.5    0.00 
  36   16:30   0.20   58.0    24   18.9   219    26.6   857.4    0.00 
  36   16:40   0.14   57.5    24   13.6   223    26.4   857.4    0.00 
  36   16:50   0.09   57.0    26   13.2   204    18.6   857.2    0.00 
  36   17:00   0.05   55.6    29   13.4   182    20.1   857.2    0.00 
  36   17:10   0.02   53.9    31   10.1   201    13.8   857.3    0.00 
  36   17:20   0.02   52.7    32    9.3   208    12.6   857.3    0.00 
  36   17:30   0.01   53.2    30   11.7   217    18.1   857.3    0.00 
  36   17:40   0.00   52.8    27   10.9   222    16.4   857.4    0.00 
  36   17:50   0.00   52.4    29   10.1   225    15.4   857.5    0.00 
  36   18:00   0.00   50.8    32    8.6   220    12.9   857.4    0.00 
  36   18:10   0.00   50.6    33   11.3   203    15.9   857.3    0.00 
  36   18:20   0.00   50.6    32   11.8   191    16.1   857.2    0.00 
  36   18:30   0.00   49.0    34    9.7   190    13.5   857.1    0.00 
  36   18:40   0.00   48.3    34    9.8   182    12.7   857.1    0.00 
  36   18:50   0.00   49.6    27   12.7   202    21.3   857.0    0.00 
  36   19:00   0.00   49.3    27   10.5   183    17.2   856.8    0.00 
  36   19:10   0.00   47.4    30   10.4   187    14.8   856.5    0.00 
  36   19:20   0.00   48.3    27   12.0   188    18.8   856.1    0.00 
  36   19:30   0.00   49.3    24   12.6   191    17.8   856.2    0.00 
  36   19:40   0.00   51.1    21   19.5   197    33.5   856.3    0.00 
  36   19:50   0.00   51.8    20   22.6   213    36.8   856.6    0.00 
  36   20:00   0.00   51.7    21   21.5   212    33.2   856.6    0.00 
  36   20:10   0.00   51.7    21   20.2   204    32.7   856.6    0.00 
  36   20:20   0.00   51.5    24   25.9   210    41.0   856.3    0.00 
  36   20:30   0.00   48.7    38   24.8   222    38.7   856.3    0.00 
  36   20:40   0.00   45.4    48   22.5   225    36.2   856.4    0.00 

Return to Mason Valley Wildlife Refuge graphs page.


Western Regional Climate Center,wrcc@dri.edu